York Beach, Maine
Current Conditions -  °F | °C
As of 12:58 PM on Thursday 29 Jan 2015 (Local Time) from KPSM Reporting Station
Few Clouds Few Clouds  
Wind Chill: 28°   Ceiling: Unl
Heat Index: 28°   Visibility: 10mi
Dew Point: -8°   Wind: 0mph
Humidity: 21%   Direction: NA
Pressure: 30.22"   Gusts: NA
Location:  43.17°N, 70.61°W
Report Text: KPSM 291758Z 00000KT 10SM FEW250 M02/M22 A3022 RMK AO2A SLP239 4/020 T10231221 11023 21185 57029
Loading
Personal Weather Stations






























Interactive Weather Map New forecast layout! Learn more

10-Day Weather Forecast

Advertisements
Track Severe Weather on mobile